Time;durP1;ratioP1;P1;durP2;ratioP2;P2;SDS_P1;SDS_P2;PMS_P1;PMS_P2;Temp;Humidity;BMP_temperature;BMP_pressure;BME280_temperature;BME280_humidity;BME280_pressure;Samples;Min_cycle;Max_cycle;Signal;HPM_P1;HPM_P2
2023/07/19 00:01:54;;;;;;;4.73;2.40;;;15.20;1.00;;;;;;5015393;28;20665;-78
2023/07/19 00:04:20;;;;;;;3.27;2.13;;;15.10;1.00;;;;;;5011577;28;20185;-78
2023/07/19 00:06:46;;;;;;;3.73;2.07;;;15.10;1.00;;;;;;5012640;28;20231;-78
2023/07/19 00:09:11;;;;;;;3.90;2.40;;;15.10;1.00;;;;;;5015726;28;20177;-78
2023/07/19 00:11:37;;;;;;;5.70;2.00;;;15.00;1.00;;;;;;5015548;28;20184;-77
2023/07/19 00:14:05;;;;;;;3.97;2.10;;;15.00;92.70;;;;;;5012068;28;20299;-78
2023/07/19 00:16:32;;;;;;;5.27;2.20;;;15.00;99.90;;;;;;5015642;28;20169;-78
2023/07/19 00:18:57;;;;;;;4.43;2.13;;;14.90;1.00;;;;;;5015751;28;20695;-78
2023/07/19 00:21:23;;;;;;;4.23;2.57;;;14.90;99.90;;;;;;5015266;28;20197;-78
2023/07/19 00:23:49;;;;;;;3.07;2.10;;;14.90;99.90;;;;;;5013678;28;20187;-78
2023/07/19 00:26:15;;;;;;;6.17;2.20;;;14.90;99.90;;;;;;5016346;28;20195;-78
2023/07/19 00:28:41;;;;;;;7.60;2.60;;;14.90;1.00;;;;;;5015132;28;20177;-77
2023/07/19 00:31:06;;;;;;;5.50;2.10;;;14.90;1.00;;;;;;5014900;28;20200;-78
2023/07/19 00:33:32;;;;;;;4.27;2.37;;;14.80;1.00;;;;;;5012866;28;20205;-77
2023/07/19 00:35:57;;;;;;;7.27;2.33;;;14.80;1.00;;;;;;5013693;28;20267;-78
2023/07/19 00:38:23;;;;;;;5.93;2.30;;;14.80;1.00;;;;;;5014961;28;20268;-78
2023/07/19 00:40:49;;;;;;;4.37;2.23;;;14.80;1.00;;;;;;5015158;28;20268;-78
2023/07/19 00:43:15;;;;;;;6.17;2.57;;;14.80;1.00;;;;;;5013283;28;20181;-78
2023/07/19 00:45:47;;;;;;;3.60;2.10;;;14.80;1.00;;;;;;5014203;28;20185;-78
2023/07/19 00:48:14;;;;;;;3.87;2.87;;;14.80;1.00;;;;;;5014928;28;20184;-78
2023/07/19 00:50:40;;;;;;;3.60;2.60;;;14.80;1.00;;;;;;5013690;28;20207;-78
2023/07/19 00:53:05;;;;;;;6.20;2.10;;;14.70;1.00;;;;;;5013671;28;20177;-78
2023/07/19 00:55:31;;;;;;;4.17;2.37;;;14.70;1.00;;;;;;5015257;28;20316;-79
2023/07/19 00:57:57;;;;;;;4.53;2.13;;;14.70;1.00;;;;;;5013816;28;20612;-78
2023/07/19 01:00:23;;;;;;;3.70;2.20;;;14.60;1.00;;;;;;5015944;28;20220;-78
2023/07/19 01:02:49;;;;;;;7.93;2.67;;;14.60;1.00;;;;;;5021510;28;20169;-77
2023/07/19 01:05:16;;;;;;;4.40;2.63;;;14.60;1.00;;;;;;5029826;28;20199;-77
2023/07/19 01:07:41;;;;;;;4.03;2.70;;;14.60;1.00;;;;;;5020285;28;20169;-78
2023/07/19 01:10:08;;;;;;;6.00;2.57;;;14.50;1.00;;;;;;5013363;28;20685;-78
2023/07/19 01:12:34;;;;;;;3.00;1.90;;;14.50;1.00;;;;;;5014803;28;20184;-78
2023/07/19 01:14:59;;;;;;;3.83;2.57;;;14.50;1.00;;;;;;5012848;28;20284;-78
2023/07/19 01:17:25;;;;;;;11.17;2.10;;;14.40;1.00;;;;;;5013277;28;20260;-78
2023/07/19 01:19:50;;;;;;;6.00;2.37;;;14.50;1.00;;;;;;5012881;28;20597;-76
2023/07/19 01:22:16;;;;;;;4.47;2.37;;;14.50;1.00;;;;;;5014869;28;20538;-78
2023/07/19 01:24:42;;;;;;;4.13;2.20;;;14.40;1.00;;;;;;5013194;28;20181;-78
2023/07/19 01:27:07;;;;;;;2.63;2.03;;;14.40;1.00;;;;;;5012515;28;20303;-77
2023/07/19 01:29:33;;;;;;;2.60;1.77;;;14.40;1.00;;;;;;5012845;28;20636;-77
2023/07/19 01:31:58;;;;;;;3.60;2.27;;;14.40;1.00;;;;;;5014341;28;20700;-78
2023/07/19 01:34:24;;;;;;;3.90;2.10;;;14.40;1.00;;;;;;5013170;28;20205;-78
2023/07/19 01:36:49;;;;;;;5.50;2.30;;;14.30;1.00;;;;;;5013108;28;20253;-78
2023/07/19 01:39:14;;;;;;;3.37;2.30;;;14.30;1.00;;;;;;5014451;28;20173;-78
2023/07/19 01:41:40;;;;;;;2.90;1.90;;;14.30;67.40;;;;;;5014186;28;20172;-78
2023/07/19 01:44:06;;;;;;;3.60;2.10;;;14.30;80.70;;;;;;5013618;28;20193;-77
2023/07/19 01:46:31;;;;;;;4.00;2.20;;;14.30;81.00;;;;;;5012977;28;20317;-78
2023/07/19 01:48:57;;;;;;;5.57;2.37;;;14.20;69.70;;;;;;5014323;28;20668;-77
2023/07/19 01:51:22;;;;;;;2.90;2.20;;;14.40;60.00;;;;;;5014278;28;20704;-78
2023/07/19 01:53:48;;;;;;;4.03;2.20;;;14.10;76.10;;;;;;5012849;28;20205;-78
2023/07/19 01:56:14;;;;;;;3.53;2.27;;;14.10;79.50;;;;;;5013166;28;20169;-78
2023/07/19 01:58:39;;;;;;;6.53;2.50;;;14.00;90.00;;;;;;5011928;28;20188;-78
2023/07/19 02:01:05;;;;;;;6.70;2.30;;;14.00;84.40;;;;;;5014157;28;20193;-78
2023/07/19 02:03:30;;;;;;;3.40;2.27;;;14.00;76.70;;;;;;5013102;28;20169;-78
2023/07/19 02:06:00;;;;;;;3.07;2.40;;;14.00;91.10;;;;;;5017718;28;20649;-78
2023/07/19 02:08:26;;;;;;;3.17;2.13;;;13.90;94.00;;;;;;5017781;28;20165;-78
2023/07/19 02:10:52;;;;;;;2.93;1.97;;;13.90;91.30;;;;;;5016930;28;20207;-77
2023/07/19 02:13:17;;;;;;;3.07;1.90;;;14.10;84.80;;;;;;5017856;28;20169;-76
2023/07/19 02:15:44;;;;;;;6.50;2.53;;;13.90;85.80;;;;;;5016814;28;20279;-78
2023/07/19 02:18:10;;;;;;;5.03;2.80;;;13.90;99.90;;;;;;5016530;28;20177;-78
2023/07/19 02:20:36;;;;;;;6.83;2.13;;;13.90;99.90;;;;;;5017644;28;20333;-78
2023/07/19 02:23:01;;;;;;;3.83;2.23;;;13.90;99.90;;;;;;5016255;28;20703;-78
2023/07/19 02:25:27;;;;;;;3.70;2.13;;;13.90;99.90;;;;;;5016950;28;20235;-78
2023/07/19 02:27:52;;;;;;;3.77;2.10;;;13.80;99.90;;;;;;5017447;28;20177;-78
2023/07/19 02:30:18;;;;;;;3.73;2.50;;;13.80;99.90;;;;;;5015975;28;20722;-78
2023/07/19 02:32:43;;;;;;;4.70;2.50;;;13.70;99.90;;;;;;5017529;28;20644;-78
2023/07/19 02:35:09;;;;;;;3.53;2.63;;;13.70;99.90;;;;;;5015804;28;20251;-78
2023/07/19 02:37:34;;;;;;;5.17;2.07;;;13.70;99.90;;;;;;5017701;28;20181;-78
2023/07/19 02:40:00;;;;;;;6.60;2.60;;;13.70;99.90;;;;;;5017448;28;20185;-78
2023/07/19 02:42:25;;;;;;;6.63;2.00;;;13.70;99.90;;;;;;5017528;28;20169;-78
2023/07/19 02:44:51;;;;;;;5.83;2.10;;;13.70;99.90;;;;;;5014572;28;20187;-78
2023/07/19 02:47:16;;;;;;;3.07;2.00;;;13.70;99.90;;;;;;5011952;28;20189;-78
2023/07/19 02:49:42;;;;;;;5.17;2.40;;;13.60;99.90;;;;;;5016139;28;20533;-78
2023/07/19 02:52:08;;;;;;;4.43;2.20;;;13.60;99.90;;;;;;5014433;28;20177;-78
2023/07/19 02:54:34;;;;;;;4.23;2.20;;;13.60;99.90;;;;;;5013314;28;20200;-78
2023/07/19 02:57:00;;;;;;;3.30;2.10;;;13.60;99.90;;;;;;5017030;28;20176;-78
2023/07/19 02:59:25;;;;;;;2.27;1.90;;;13.60;99.90;;;;;;5017353;28;20264;-78
2023/07/19 03:01:51;;;;;;;3.73;2.30;;;13.50;99.90;;;;;;5017242;28;20173;-78
2023/07/19 03:04:16;;;;;;;4.43;2.43;;;13.50;99.90;;;;;;5014447;28;20185;-78
2023/07/19 03:06:42;;;;;;;4.53;2.33;;;13.50;99.90;;;;;;5015417;28;20173;-78
2023/07/19 03:09:07;;;;;;;5.23;2.43;;;13.50;99.90;;;;;;5017124;28;20557;-78
2023/07/19 03:11:33;;;;;;;3.77;2.07;;;13.40;99.90;;;;;;5017178;28;20636;-78
2023/07/19 03:13:58;;;;;;;3.53;2.20;;;13.40;99.90;;;;;;5025963;28;20197;-77
2023/07/19 03:16:24;;;;;;;3.13;2.23;;;13.40;99.90;;;;;;5037052;28;20208;-79
2023/07/19 03:18:49;;;;;;;2.27;1.83;;;13.40;99.90;;;;;;5025154;28;20494;-79
2023/07/19 03:21:15;;;;;;;3.40;2.03;;;13.40;99.90;;;;;;5016487;28;20193;-78
2023/07/19 03:23:40;;;;;;;3.83;2.03;;;13.40;99.90;;;;;;5015386;28;20192;-77
2023/07/19 03:26:07;;;;;;;2.90;1.80;;;13.40;99.90;;;;;;5016341;28;20193;-78
2023/07/19 03:28:32;;;;;;;2.80;2.20;;;13.30;99.90;;;;;;5016551;28;20548;-78
2023/07/19 03:30:58;;;;;;;2.47;1.83;;;13.20;99.90;;;;;;5016859;28;20216;-79
2023/07/19 03:33:24;;;;;;;2.83;2.20;;;13.20;99.90;;;;;;5015265;28;20188;-78
2023/07/19 03:35:50;;;;;;;3.20;2.23;;;13.20;99.90;;;;;;5016012;28;20200;-78
2023/07/19 03:38:17;;;;;;;3.13;2.10;;;13.10;99.90;;;;;;5018212;28;20181;-78
2023/07/19 03:40:43;;;;;;;3.57;2.17;;;13.20;99.90;;;;;;5014947;28;20197;-77
2023/07/19 03:43:08;;;;;;;4.67;2.43;;;13.20;99.90;;;;;;5016724;28;20246;-78
2023/07/19 03:45:34;;;;;;;3.30;2.40;;;13.20;99.90;;;;;;5015139;28;20223;-78
2023/07/19 03:47:59;;;;;;;4.03;2.47;;;13.20;99.90;;;;;;5016299;28;20207;-78
2023/07/19 03:50:25;;;;;;;2.77;2.03;;;13.20;99.90;;;;;;5015416;28;20212;-78
2023/07/19 03:52:51;;;;;;;2.93;2.30;;;13.20;99.90;;;;;;5014946;28;20185;-78
2023/07/19 03:55:16;;;;;;;2.60;2.10;;;13.20;99.90;;;;;;5016827;28;20201;-78
2023/07/19 03:57:42;;;;;;;4.30;2.60;;;13.20;99.90;;;;;;5016568;28;20204;-78
2023/07/19 04:00:09;;;;;;;5.30;2.37;;;13.20;99.90;;;;;;5016432;28;20219;-78
2023/07/19 04:02:34;;;;;;;4.03;2.47;;;13.30;99.90;;;;;;5016327;28;20173;-78
2023/07/19 04:05:00;;;;;;;4.73;2.23;;;13.20;99.90;;;;;;5016108;28;20196;-78
2023/07/19 04:07:26;;;;;;;5.63;2.20;;;13.30;99.90;;;;;;5016775;28;20207;-78
2023/07/19 04:09:51;;;;;;;6.37;2.47;;;13.30;99.90;;;;;;5016510;28;20207;-78
2023/07/19 04:12:17;;;;;;;2.93;1.90;;;13.30;99.90;;;;;;5016458;28;20181;-78
2023/07/19 04:14:43;;;;;;;5.03;2.23;;;13.30;99.90;;;;;;5016692;28;20201;-78
2023/07/19 04:17:09;;;;;;;2.83;2.20;;;13.40;99.90;;;;;;5017707;28;20177;-78
2023/07/19 04:19:35;;;;;;;5.00;2.40;;;13.40;99.90;;;;;;5017441;28;20652;-78
2023/07/19 04:22:00;;;;;;;4.50;2.30;;;13.50;99.90;;;;;;5016450;28;20183;-79
2023/07/19 04:24:26;;;;;;;5.43;2.27;;;13.50;99.90;;;;;;5014665;28;20177;-77
2023/07/19 04:26:51;;;;;;;4.43;2.33;;;13.50;99.90;;;;;;5015395;28;20251;-78
2023/07/19 04:29:19;;;;;;;2.87;2.00;;;13.50;99.90;;;;;;5015154;28;20672;-78
2023/07/19 04:35:07;;;;;;;4.40;2.20;;;13.60;99.90;;;;;;5015481;28;20340;-78
2023/07/19 04:37:33;;;;;;;3.00;2.23;;;13.60;99.90;;;;;;5013814;28;20181;-78
2023/07/19 04:39:58;;;;;;;7.73;2.00;;;13.70;99.90;;;;;;5014337;28;20201;-78
2023/07/19 04:42:24;;;;;;;3.90;2.27;;;13.70;99.90;;;;;;5015477;28;20592;-78
2023/07/19 04:44:50;;;;;;;5.17;2.20;;;13.70;99.90;;;;;;5015375;28;20628;-78
2023/07/19 04:47:15;;;;;;;6.07;2.20;;;13.70;99.90;;;;;;5015050;28;20181;-78
2023/07/19 04:49:41;;;;;;;5.37;2.10;;;13.70;99.90;;;;;;5015155;28;20193;-77
2023/07/19 04:52:07;;;;;;;6.03;2.57;;;13.90;99.90;;;;;;5015621;28;20235;-78
2023/07/19 04:54:32;;;;;;;5.10;2.47;;;13.90;99.90;;;;;;5017343;28;20200;-78
2023/07/19 04:56:58;;;;;;;4.03;2.20;;;14.00;99.90;;;;;;5014259;28;20172;-78
2023/07/19 04:59:24;;;;;;;3.40;2.67;;;14.00;99.90;;;;;;5014261;28;20588;-78
2023/07/19 05:01:49;;;;;;;4.87;2.30;;;14.10;99.90;;;;;;5015466;28;20176;-78
2023/07/19 05:04:15;;;;;;;7.83;2.30;;;14.10;99.90;;;;;;5014295;28;20212;-78
2023/07/19 05:06:40;;;;;;;3.77;2.10;;;14.20;99.90;;;;;;5015274;28;20177;-78
2023/07/19 05:09:09;;;;;;;6.60;2.80;;;14.30;99.90;;;;;;5015411;28;20177;-76
2023/07/19 05:11:34;;;;;;;2.83;2.23;;;14.30;99.90;;;;;;5013576;28;20184;-78
2023/07/19 05:14:00;;;;;;;3.57;2.10;;;14.40;99.90;;;;;;5014296;28;20262;-79
2023/07/19 05:16:26;;;;;;;6.07;2.67;;;14.40;99.90;;;;;;5015164;28;20661;-78
2023/07/19 05:18:52;;;;;;;3.33;2.50;;;14.50;99.90;;;;;;5014052;28;20180;-79
2023/07/19 05:21:18;;;;;;;4.40;2.40;;;14.50;99.90;;;;;;5015189;28;20275;-78
2023/07/19 05:23:43;;;;;;;3.10;2.03;;;14.60;99.90;;;;;;5015610;28;20200;-79
2023/07/19 05:26:09;;;;;;;5.57;2.37;;;14.70;99.90;;;;;;5016834;28;20181;-78
2023/07/19 05:28:35;;;;;;;2.43;2.13;;;14.70;99.90;;;;;;5033679;28;20230;-78
2023/07/19 05:31:09;;;;;;;5.00;2.27;;;14.90;99.90;;;;;;5021667;28;20750;-78
2023/07/19 05:33:35;;;;;;;3.77;2.20;;;14.90;99.90;;;;;;5014159;28;20180;-78
2023/07/19 05:36:01;;;;;;;2.80;2.07;;;14.90;99.90;;;;;;5014116;28;20185;-78
2023/07/19 05:38:27;;;;;;;3.73;2.50;;;15.00;99.90;;;;;;5013246;28;20177;-77
2023/07/19 05:40:59;;;;;;;3.03;2.30;;;15.10;99.90;;;;;;5013731;28;20193;-77
2023/07/19 05:43:25;;;;;;;4.20;2.37;;;15.10;99.90;;;;;;5014225;28;20288;-78
2023/07/19 05:45:50;;;;;;;4.60;2.17;;;15.20;99.90;;;;;;5013958;28;20204;-77
2023/07/19 05:48:16;;;;;;;4.27;2.10;;;15.30;99.90;;;;;;5013870;28;20184;-77
2023/07/19 05:50:41;;;;;;;3.40;2.20;;;15.30;99.90;;;;;;5014174;28;20201;-78
2023/07/19 05:53:07;;;;;;;4.77;2.60;;;15.40;99.90;;;;;;5025392;28;20173;-78
2023/07/19 05:55:33;;;;;;;5.47;2.23;;;15.40;99.90;;;;;;5025819;28;20220;-78
2023/07/19 05:57:59;;;;;;;4.47;2.33;;;15.60;99.90;;;;;;5029110;28;20167;-78
2023/07/19 06:00:28;;;;;;;5.33;2.67;;;15.60;99.90;;;;;;5023066;28;20201;-77
2023/07/19 06:02:57;;;;;;;7.33;2.50;;;15.60;99.90;;;;;;5015048;28;20200;-77
2023/07/19 06:05:24;;;;;;;4.27;2.50;;;15.70;99.90;;;;;;5014997;28;20180;-77
2023/07/19 06:07:50;;;;;;;3.73;2.60;;;15.70;99.90;;;;;;5013694;28;20192;-77
2023/07/19 06:10:16;;;;;;;3.93;2.60;;;15.80;99.90;;;;;;5012705;28;20205;-77
2023/07/19 06:12:43;;;;;;;4.87;2.20;;;15.90;99.90;;;;;;5013137;28;20255;-77
2023/07/19 06:15:09;;;;;;;3.93;2.37;;;15.90;99.90;;;;;;5011125;28;20212;-77
2023/07/19 06:17:36;;;;;;;3.47;2.80;;;16.00;99.90;;;;;;5011306;28;20541;-77
2023/07/19 06:20:04;;;;;;;4.93;2.80;;;16.00;99.90;;;;;;5011138;28;20316;-77
2023/07/19 06:22:30;;;;;;;4.77;3.17;;;16.10;99.90;;;;;;5012587;28;20593;-77
2023/07/19 06:24:57;;;;;;;8.27;2.87;;;16.10;99.90;;;;;;5011035;28;20189;-77
2023/07/19 06:27:22;;;;;;;4.67;2.33;;;16.20;99.90;;;;;;5011455;28;20529;-77
2023/07/19 06:29:48;;;;;;;6.20;2.67;;;16.30;99.90;;;;;;5012355;28;20208;-77
2023/07/19 06:32:13;;;;;;;5.90;3.07;;;16.30;99.90;;;;;;5011024;28;20768;-77
2023/07/19 06:34:39;;;;;;;4.10;2.93;;;16.40;99.90;;;;;;5012354;28;20347;-76
2023/07/19 06:37:04;;;;;;;4.03;2.47;;;16.40;99.90;;;;;;5012582;28;20296;-77
2023/07/19 06:39:30;;;;;;;4.43;2.90;;;16.50;99.90;;;;;;5012099;28;20203;-77
2023/07/19 06:41:55;;;;;;;5.03;2.70;;;16.50;99.90;;;;;;5010887;28;20205;-77
2023/07/19 06:44:21;;;;;;;3.30;2.53;;;16.60;99.90;;;;;;5012524;28;20212;-77
2023/07/19 06:46:46;;;;;;;4.07;2.97;;;16.60;99.90;;;;;;5012175;28;20173;-77
2023/07/19 06:49:12;;;;;;;5.53;3.10;;;16.70;99.90;;;;;;5017035;28;20551;-76
2023/07/19 06:51:38;;;;;;;4.60;3.17;;;16.80;99.90;;;;;;5014139;28;20219;-77
2023/07/19 06:54:04;;;;;;;5.20;2.83;;;16.90;99.90;;;;;;5014763;28;20204;-77
2023/07/19 06:56:32;;;;;;;5.37;2.80;;;16.90;99.90;;;;;;5014585;28;20755;-77
2023/07/19 06:58:58;;;;;;;5.10;2.63;;;17.00;99.90;;;;;;5016002;28;20183;-77
2023/07/19 07:01:23;;;;;;;4.80;2.83;;;17.10;99.90;;;;;;5015770;28;20279;-77
2023/07/19 07:03:50;;;;;;;6.90;3.60;;;17.20;99.90;;;;;;5015818;28;20234;-77
2023/07/19 07:06:16;;;;;;;13.20;4.70;;;17.30;99.90;;;;;;5014487;28;20207;-77
2023/07/19 07:08:42;;;;;;;10.63;4.10;;;17.30;99.90;;;;;;5014681;28;20188;-77
2023/07/19 07:11:07;;;;;;;6.73;4.43;;;17.30;99.90;;;;;;5016064;28;20200;-77
2023/07/19 07:13:33;;;;;;;7.67;5.37;;;17.40;99.90;;;;;;5014082;28;20185;-77
2023/07/19 07:15:59;;;;;;;9.67;4.90;;;17.40;99.90;;;;;;5016100;28;20220;-77
2023/07/19 07:18:25;;;;;;;11.70;5.63;;;17.50;99.90;;;;;;5016052;28;20196;-77
2023/07/19 07:20:51;;;;;;;7.60;4.57;;;17.60;99.90;;;;;;5015475;28;20193;-78
2023/07/19 07:23:17;;;;;;;9.63;4.93;;;17.70;99.90;;;;;;5015657;28;20172;-77
2023/07/19 07:25:42;;;;;;;7.60;5.20;;;17.80;99.90;;;;;;5015627;28;20185;-77
2023/07/19 07:28:08;;;;;;;11.03;5.10;;;17.90;1.00;;;;;;5015247;28;20173;-77
2023/07/19 07:30:35;;;;;;;7.50;4.23;;;18.00;99.90;;;;;;5015622;28;20205;-77
2023/07/19 07:33:01;;;;;;;10.13;5.23;;;18.10;1.00;;;;;;5014005;28;20600;-77
2023/07/19 07:35:27;;;;;;;10.10;5.60;;;18.10;1.00;;;;;;5014954;28;20205;-77
2023/07/19 07:37:53;;;;;;;9.90;5.37;;;18.20;1.00;;;;;;5015142;28;20252;-77
2023/07/19 07:40:18;;;;;;;10.53;4.97;;;18.10;99.90;;;;;;5014496;28;20231;-77
2023/07/19 07:42:44;;;;;;;7.57;4.70;;;18.10;1.00;;;;;;5014813;28;20177;-77
2023/07/19 07:45:10;;;;;;;6.33;4.50;;;18.20;99.90;;;;;;5015289;28;20188;-77
2023/07/19 07:47:36;;;;;;;9.03;4.60;;;18.30;1.00;;;;;;5014836;28;20279;-77
2023/07/19 07:50:03;;;;;;;10.20;5.60;;;18.40;1.00;;;;;;5013551;28;20201;-77
2023/07/19 07:52:29;;;;;;;13.00;4.73;;;18.40;67.40;;;;;;5015202;28;20279;-75
2023/07/19 07:54:54;;;;;;;12.00;4.83;;;18.50;99.90;;;;;;5014782;28;20628;-77
2023/07/19 07:57:20;;;;;;;10.30;4.70;;;18.60;99.90;;;;;;5014950;28;20165;-77
2023/07/19 07:59:45;;;;;;;13.10;4.73;;;18.60;99.90;;;;;;5015046;28;20250;-77
2023/07/19 08:02:11;;;;;;;17.00;5.57;;;18.70;99.90;;;;;;5015137;28;20272;-77
2023/07/19 08:04:37;;;;;;;7.93;4.47;;;18.80;1.00;;;;;;5015086;28;20181;-77
2023/07/19 08:07:02;;;;;;;11.47;4.93;;;18.80;99.90;;;;;;5013405;28;20189;-77
2023/07/19 08:09:28;;;;;;;7.80;4.70;;;18.90;99.90;;;;;;5013562;28;20714;-77
2023/07/19 08:11:53;;;;;;;8.57;4.17;;;18.90;99.90;;;;;;5014880;28;20181;-77
2023/07/19 08:14:22;;;;;;;9.13;4.63;;;19.00;99.90;;;;;;5014492;28;20200;-77
2023/07/19 08:16:49;;;;;;;15.73;4.57;;;19.20;99.90;;;;;;5014534;28;20172;-77
2023/07/19 08:19:15;;;;;;;10.77;4.97;;;19.30;99.90;;;;;;5013387;28;20208;-77
2023/07/19 08:21:40;;;;;;;10.17;4.80;;;19.40;99.90;;;;;;5013382;28;20546;-77
2023/07/19 08:24:06;;;;;;;9.20;4.30;;;19.60;1.00;;;;;;5014929;28;20173;-77
2023/07/19 08:26:31;;;;;;;10.27;4.53;;;19.60;1.00;;;;;;5012988;28;20533;-77
2023/07/19 08:28:57;;;;;;;8.77;4.40;;;19.60;1.00;;;;;;5014452;28;20181;-77
2023/07/19 08:31:23;;;;;;;6.93;4.67;;;19.70;99.90;;;;;;5014374;28;20203;-77
2023/07/19 08:33:49;;;;;;;11.03;3.80;;;19.80;99.90;;;;;;5013099;28;20209;-78
2023/07/19 08:36:14;;;;;;;9.83;3.80;;;19.80;99.90;;;;;;5013076;28;20192;-77
2023/07/19 08:38:40;;;;;;;8.60;3.70;;;19.80;99.90;;;;;;5013033;28;20184;-77
2023/07/19 08:41:06;;;;;;;11.40;4.43;;;19.80;99.90;;;;;;5012857;28;20283;-77
2023/07/19 08:43:35;;;;;;;13.00;4.37;;;19.80;1.00;;;;;;5017573;28;20584;-77
2023/07/19 08:46:02;;;;;;;8.90;3.63;;;19.80;99.90;;;;;;5013393;28;20228;-77
2023/07/19 08:48:29;;;;;;;8.70;3.33;;;19.70;1.00;;;;;;5015801;28;20170;-77
2023/07/19 08:50:56;;;;;;;7.73;3.23;;;19.70;1.00;;;;;;5001329;28;20194;-77
2023/07/19 08:53:24;;;;;;;7.07;2.60;;;19.70;99.90;;;;;;5012588;28;20170;-78
2023/07/19 08:55:51;;;;;;;4.80;2.53;;;19.70;1.00;;;;;;4993104;28;20224;-77
2023/07/19 08:58:17;;;;;;;4.03;2.70;;;19.70;1.00;;;;;;4993358;28;20174;-77
2023/07/19 09:00:45;;;;;;;7.40;2.40;;;19.70;1.00;;;;;;4994544;28;20193;-77
2023/07/19 09:03:11;;;;;;;8.13;2.53;;;19.80;1.00;;;;;;4993122;28;20169;-77
2023/07/19 09:05:38;;;;;;;5.37;2.40;;;19.80;1.00;;;;;;4993302;28;20185;-77
2023/07/19 09:08:04;;;;;;;5.53;2.77;;;19.90;1.00;;;;;;4993108;28;20186;-77
2023/07/19 09:10:30;;;;;;;6.37;2.20;;;20.00;99.90;;;;;;4994169;28;20732;-77
2023/07/19 09:12:56;;;;;;;5.37;2.37;;;20.00;99.90;;;;;;4994598;28;20294;-77
2023/07/19 09:15:22;;;;;;;5.70;2.40;;;20.20;1.00;;;;;;4992856;28;20228;-77
2023/07/19 09:17:49;;;;;;;6.27;2.63;;;20.10;1.00;;;;;;4994673;28;20244;-77
2023/07/19 09:20:16;;;;;;;6.50;2.37;;;20.20;99.90;;;;;;4994261;28;20204;-78
2023/07/19 09:22:42;;;;;;;8.90;2.97;;;20.30;99.90;;;;;;4994216;28;20174;-77
2023/07/19 09:25:10;;;;;;;8.47;3.17;;;20.40;1.00;;;;;;4994641;28;20232;-77
2023/07/19 09:27:36;;;;;;;7.20;2.97;;;20.50;1.00;;;;;;4994686;28;20526;-77
2023/07/19 09:30:07;;;;;;;8.63;3.27;;;20.50;1.00;;;;;;4994224;28;20194;-77
2023/07/19 09:32:33;;;;;;;5.60;2.90;;;20.50;1.00;;;;;;4993241;28;20641;-77
2023/07/19 09:35:03;;;;;;;7.03;2.80;;;20.50;1.00;;;;;;4993953;28;20205;-78
2023/07/19 09:37:28;;;;;;;6.87;3.53;;;20.50;1.00;;;;;;4993042;28;20231;-78
2023/07/19 09:39:54;;;;;;;5.57;2.87;;;20.50;99.90;;;;;;4994176;28;20197;-78
2023/07/19 09:42:20;;;;;;;5.77;3.17;;;20.70;1.00;;;;;;4993027;28;20181;-77
2023/07/19 09:44:46;;;;;;;8.37;3.87;;;20.80;1.00;;;;;;4992104;28;20192;-78
2023/07/19 09:47:13;;;;;;;6.87;3.53;;;20.90;99.90;;;;;;4993498;28;20251;-77
2023/07/19 09:49:39;;;;;;;6.23;2.97;;;20.80;99.90;;;;;;4992406;28;20197;-78
2023/07/19 09:52:05;;;;;;;6.27;3.37;;;20.90;1.00;;;;;;4993539;28;20180;-78
2023/07/19 09:54:32;;;;;;;7.80;3.17;;;20.90;1.00;;;;;;4997294;28;20201;-77
2023/07/19 09:57:00;;;;;;;6.53;3.53;;;21.00;1.00;;;;;;4994408;28;20252;-78
2023/07/19 09:59:29;;;;;;;6.23;3.43;;;21.00;1.00;;;;;;4993771;28;20189;-77
2023/07/19 10:01:56;;;;;;;5.87;3.10;;;21.00;99.90;;;;;;4991656;28;20184;-77
2023/07/19 10:04:28;;;;;;;6.93;3.40;;;21.00;99.90;;;;;;4993285;28;20177;-77
2023/07/19 10:07:17;;;;;;;7.20;4.00;;;21.10;99.90;;;;;;4993448;28;20182;-77
2023/07/19 10:09:44;;;;;;;7.07;4.50;;;21.10;99.90;;;;;;4993168;28;20220;-77
2023/07/19 10:12:16;;;;;;;7.23;3.83;;;21.20;99.90;;;;;;4992036;28;20260;-77
2023/07/19 10:15:02;;;;;;;10.10;3.90;;;21.30;99.90;;;;;;4992969;28;20232;-78
2023/07/19 10:17:32;;;;;;;8.93;3.90;;;21.30;99.90;;;;;;4993292;28;20550;-78
2023/07/19 10:20:03;;;;;;;9.83;4.07;;;21.40;99.90;;;;;;4992545;28;20293;-77
2023/07/19 10:22:57;;;;;;;8.07;3.50;;;21.40;99.90;;;;;;4993687;28;20165;-78
2023/07/19 10:25:45;;;;;;;8.07;3.73;;;21.40;99.90;;;;;;5008421;28;20181;-77
2023/07/19 10:28:13;;;;;;;7.37;3.77;;;21.40;99.90;;;;;;5015519;28;20177;-78
2023/07/19 10:30:50;;;;;;;7.70;3.60;;;21.40;99.90;;;;;;5015734;28;20200;-78
2023/07/19 10:33:29;;;;;;;4.93;3.23;;;21.50;99.90;;;;;;5012501;28;20184;-78
2023/07/19 10:36:15;;;;;;;8.40;3.53;;;21.60;99.90;;;;;;5012971;28;20209;-78
2023/07/19 10:38:41;;;;;;;7.47;3.10;;;21.60;1.00;;;;;;5014517;28;20223;-77
2023/07/19 10:41:08;;;;;;;6.13;3.27;;;21.70;86.90;;;;;;5016562;28;20193;-78
2023/07/19 10:43:36;;;;;;;6.77;3.13;;;21.80;1.00;;;;;;5017203;28;20203;-78
2023/07/19 10:46:04;;;;;;;6.23;3.10;;;21.90;1.00;;;;;;5013827;28;20188;-77
2023/07/19 10:48:32;;;;;;;11.07;3.23;;;21.90;1.00;;;;;;5015866;28;20184;-77
2023/07/19 10:51:10;;;;;;;8.57;3.20;;;22.00;1.00;;;;;;5014550;28;20235;-76
2023/07/19 10:53:48;;;;;;;5.73;2.63;;;22.00;1.00;;;;;;5015722;28;20160;-77
2023/07/19 10:56:15;;;;;;;6.57;2.70;;;22.20;1.00;;;;;;5014231;28;20165;-77
2023/07/19 10:58:42;;;;;;;9.13;2.57;;;22.40;1.00;;;;;;5015686;28;20165;-77
2023/07/19 11:01:07;;;;;;;5.47;2.40;;;22.50;1.00;;;;;;5014470;28;20606;-77
2023/07/19 11:03:33;;;;;;;7.00;2.20;;;22.60;1.00;;;;;;5015645;28;20165;-76
2023/07/19 11:05:59;;;;;;;6.90;2.23;;;22.60;1.00;;;;;;5014165;28;20619;-77
2023/07/19 11:08:29;;;;;;;3.80;1.83;;;22.70;1.00;;;;;;5015569;28;20597;-76
2023/07/19 11:10:56;;;;;;;7.87;2.30;;;22.80;1.00;;;;;;5014138;28;20205;-76
2023/07/19 11:13:24;;;;;;;6.53;2.43;;;22.80;1.00;;;;;;5015529;28;20319;-77
2023/07/19 11:15:53;;;;;;;5.93;2.10;;;22.80;1.00;;;;;;5015482;28;20202;-77
2023/07/19 11:18:37;;;;;;;4.07;2.13;;;22.80;1.00;;;;;;5012826;28;20187;-77
2023/07/19 11:21:03;;;;;;;6.03;2.40;;;22.80;99.90;;;;;;5015598;28;20629;-77
2023/07/19 11:23:30;;;;;;;8.97;2.23;;;22.70;99.90;;;;;;5015422;28;20173;-75
2023/07/19 11:26:06;;;;;;;6.40;2.20;;;22.80;99.90;;;;;;5015432;28;20181;-77
2023/07/19 11:28:41;;;;;;;9.53;2.37;;;22.90;99.90;;;;;;5015527;28;20535;-76
2023/07/19 11:31:08;;;;;;;5.10;1.83;;;22.90;99.90;;;;;;5015161;28;20192;-77
2023/07/19 11:33:34;;;;;;;5.83;1.80;;;23.00;99.90;;;;;;5013301;28;20189;-78
2023/07/19 11:36:01;;;;;;;5.03;1.80;;;23.00;99.90;;;;;;5014149;28;20212;-78
2023/07/19 11:38:26;;;;;;;3.33;1.47;;;23.10;99.90;;;;;;5014818;28;20177;-78
2023/07/19 11:40:52;;;;;;;8.50;1.90;;;23.20;99.90;;;;;;5015493;28;20193;-77
2023/07/19 11:43:25;;;;;;;4.80;1.90;;;23.30;99.90;;;;;;5011969;28;20183;-77
2023/07/19 11:45:51;;;;;;;7.77;1.63;;;23.40;99.90;;;;;;5011518;28;20212;-77
2023/07/19 11:48:16;;;;;;;4.23;2.10;;;23.30;99.90;;;;;;5012806;28;20189;-78
2023/07/19 11:50:42;;;;;;;5.63;2.03;;;23.40;99.90;;;;;;5014678;28;20288;-78
2023/07/19 11:53:07;;;;;;;4.10;1.83;;;23.50;99.90;;;;;;5014948;28;20252;-78
2023/07/19 11:55:33;;;;;;;4.77;1.80;;;23.50;99.90;;;;;;5012592;28;20695;-78
2023/07/19 11:58:02;;;;;;;7.33;2.33;;;23.40;99.90;;;;;;5014128;28;20176;-77
2023/07/19 12:00:29;;;;;;;4.47;1.97;;;23.40;99.90;;;;;;5015929;28;20185;-78
2023/07/19 12:02:56;;;;;;;2.80;1.57;;;23.60;99.90;;;;;;5013659;28;20188;-77
2023/07/19 12:05:23;;;;;;;4.57;2.00;;;23.80;99.90;;;;;;5017352;28;20173;-77
2023/07/19 12:07:50;;;;;;;5.50;2.30;;;23.90;99.90;;;;;;5023062;28;20667;-77
2023/07/19 12:10:17;;;;;;;2.73;1.70;;;23.90;99.90;;;;;;5016047;28;20635;-78
2023/07/19 12:12:48;;;;;;;6.83;2.53;;;24.00;99.90;;;;;;5013665;28;20208;-78
2023/07/19 12:15:14;;;;;;;7.00;1.83;;;24.10;99.90;;;;;;5014653;28;20197;-77
2023/07/19 12:17:39;;;;;;;3.70;2.10;;;24.10;99.90;;;;;;5013628;28;20168;-78
2023/07/19 12:20:07;;;;;;;4.87;2.30;;;24.10;99.90;;;;;;5013481;28;20282;-77
2023/07/19 12:22:37;;;;;;;5.20;2.37;;;23.90;99.90;;;;;;5013539;28;20184;-77
2023/07/19 12:25:03;;;;;;;7.33;2.60;;;23.80;99.90;;;;;;5013735;28;20264;-78
2023/07/19 12:27:30;;;;;;;4.60;2.27;;;23.70;99.90;;;;;;5010502;28;20260;-78
2023/07/19 12:29:56;;;;;;;5.63;2.40;;;23.80;99.90;;;;;;5014361;28;20263;-78
2023/07/19 12:32:22;;;;;;;4.93;2.30;;;23.80;99.90;;;;;;5014678;28;20191;-79
2023/07/19 12:34:47;;;;;;;4.30;1.80;;;23.90;99.90;;;;;;5015433;28;20291;-78
2023/07/19 12:37:13;;;;;;;6.40;2.40;;;24.10;99.90;;;;;;5014508;28;20637;-78
2023/07/19 12:39:40;;;;;;;4.20;1.97;;;24.30;99.90;;;;;;5012886;28;20196;-77
2023/07/19 12:42:06;;;;;;;8.43;2.20;;;24.50;99.90;;;;;;5012762;28;20209;-77
2023/07/19 12:44:33;;;;;;;8.17;2.23;;;24.40;99.90;;;;;;5014121;28;20169;-77
2023/07/19 12:46:58;;;;;;;8.37;2.20;;;24.30;99.90;;;;;;5012749;28;20172;-77
2023/07/19 12:49:24;;;;;;;7.17;2.43;;;24.20;99.90;;;;;;5012416;28;20193;-76